sensor_id;sensor_type;location;lat;lon;timestamp;temperature;humidity
17053;DHT22;8643;48.824;11.422;2023-08-20T00:04:02;22.40;99.90
17053;DHT22;8643;48.824;11.422;2023-08-20T00:06:31;22.40;99.90
17053;DHT22;8643;48.824;11.422;2023-08-20T00:09:00;22.30;99.90
17053;DHT22;8643;48.824;11.422;2023-08-20T00:11:29;22.30;99.90
17053;DHT22;8643;48.824;11.422;2023-08-20T00:16:27;22.20;99.90
17053;DHT22;8643;48.824;11.422;2023-08-20T00:18:56;22.20;99.90
17053;DHT22;8643;48.824;11.422;2023-08-20T00:21:27;22.10;99.90
17053;DHT22;8643;48.824;11.422;2023-08-20T00:23:56;22.10;99.90
17053;DHT22;8643;48.824;11.422;2023-08-20T00:26:25;22.10;99.90
17053;DHT22;8643;48.824;11.422;2023-08-20T00:33:52;21.90;99.90
17053;DHT22;8643;48.824;11.422;2023-08-20T00:36:34;21.90;99.90
17053;DHT22;8643;48.824;11.422;2023-08-20T00:39:03;21.90;99.90
17053;DHT22;8643;48.824;11.422;2023-08-20T00:41:31;21.80;99.90
17053;DHT22;8643;48.824;11.422;2023-08-20T00:46:29;21.80;99.90
17053;DHT22;8643;48.824;11.422;2023-08-20T00:51:26;21.70;99.90
17053;DHT22;8643;48.824;11.422;2023-08-20T00:53:57;21.60;99.90
17053;DHT22;8643;48.824;11.422;2023-08-20T00:58:55;21.50;99.90
17053;DHT22;8643;48.824;11.422;2023-08-20T01:01:25;21.50;99.90
17053;DHT22;8643;48.824;11.422;2023-08-20T01:03:54;21.50;99.90
17053;DHT22;8643;48.824;11.422;2023-08-20T01:06:28;21.50;99.90
17053;DHT22;8643;48.824;11.422;2023-08-20T01:09:12;21.50;99.90
17053;DHT22;8643;48.824;11.422;2023-08-20T01:11:54;21.50;99.90
17053;DHT22;8643;48.824;11.422;2023-08-20T01:14:29;21.50;99.90
17053;DHT22;8643;48.824;11.422;2023-08-20T01:19:26;21.40;99.90
17053;DHT22;8643;48.824;11.422;2023-08-20T01:22:11;24.80;99.90
17053;DHT22;8643;48.824;11.422;2023-08-20T01:25:07;21.40;99.90
17053;DHT22;8643;48.824;11.422;2023-08-20T01:27:52;21.30;99.90
17053;DHT22;8643;48.824;11.422;2023-08-20T01:30:31;21.30;99.90
17053;DHT22;8643;48.824;11.422;2023-08-20T01:33:01;21.30;99.90
17053;DHT22;8643;48.824;11.422;2023-08-20T01:38:03;21.20;99.90
17053;DHT22;8643;48.824;11.422;2023-08-20T01:40:32;21.20;99.90
17053;DHT22;8643;48.824;11.422;2023-08-20T01:43:00;21.30;99.90
17053;DHT22;8643;48.824;11.422;2023-08-20T01:45:29;21.30;99.90
17053;DHT22;8643;48.824;11.422;2023-08-20T01:47:58;21.20;99.90
17053;DHT22;8643;48.824;11.422;2023-08-20T01:50:27;21.20;99.90
17053;DHT22;8643;48.824;11.422;2023-08-20T01:55:24;21.00;99.90
17053;DHT22;8643;48.824;11.422;2023-08-20T01:57:56;20.90;99.90
17053;DHT22;8643;48.824;11.422;2023-08-20T02:02:58;20.80;99.90
17053;DHT22;8643;48.824;11.422;2023-08-20T02:05:27;20.80;99.90
17053;DHT22;8643;48.824;11.422;2023-08-20T02:07:56;21.30;99.90
17053;DHT22;8643;48.824;11.422;2023-08-20T02:10:25;20.80;99.90
17053;DHT22;8643;48.824;11.422;2023-08-20T02:12:53;20.90;99.90
17053;DHT22;8643;48.824;11.422;2023-08-20T02:15:22;20.80;99.90
17053;DHT22;8643;48.824;11.422;2023-08-20T02:17:50;20.80;99.90
17053;DHT22;8643;48.824;11.422;2023-08-20T02:20:20;20.80;99.90
17053;DHT22;8643;48.824;11.422;2023-08-20T02:22:49;20.80;99.90
17053;DHT22;8643;48.824;11.422;2023-08-20T02:25:18;20.90;99.90
17053;DHT22;8643;48.824;11.422;2023-08-20T02:30:15;20.90;99.90
17053;DHT22;8643;48.824;11.422;2023-08-20T02:32:43;20.90;99.90
17053;DHT22;8643;48.824;11.422;2023-08-20T02:35:12;21.00;99.90
17053;DHT22;8643;48.824;11.422;2023-08-20T02:37:43;21.00;99.90
17053;DHT22;8643;48.824;11.422;2023-08-20T02:40:12;21.00;99.90
17053;DHT22;8643;48.824;11.422;2023-08-20T02:45:09;21.00;99.90
17053;DHT22;8643;48.824;11.422;2023-08-20T02:47:38;21.10;99.90
17053;DHT22;8643;48.824;11.422;2023-08-20T02:52:36;21.10;99.90
17053;DHT22;8643;48.824;11.422;2023-08-20T02:55:06;21.20;99.90
17053;DHT22;8643;48.824;11.422;2023-08-20T02:57:35;21.20;99.90
17053;DHT22;8643;48.824;11.422;2023-08-20T03:00:04;21.20;99.90
17053;DHT22;8643;48.824;11.422;2023-08-20T03:02:37;21.10;99.90
17053;DHT22;8643;48.824;11.422;2023-08-20T03:05:07;21.10;99.90
17053;DHT22;8643;48.824;11.422;2023-08-20T03:07:36;21.10;99.90
17053;DHT22;8643;48.824;11.422;2023-08-20T03:10:08;21.10;99.90
17053;DHT22;8643;48.824;11.422;2023-08-20T03:12:36;21.00;99.90
17053;DHT22;8643;48.824;11.422;2023-08-20T03:17:36;20.90;99.90
17053;DHT22;8643;48.824;11.422;2023-08-20T03:20:06;20.90;99.90
17053;DHT22;8643;48.824;11.422;2023-08-20T03:25:08;20.80;99.90
17053;DHT22;8643;48.824;11.422;2023-08-20T03:27:37;20.80;99.90
17053;DHT22;8643;48.824;11.422;2023-08-20T03:30:06;20.60;99.90
17053;DHT22;8643;48.824;11.422;2023-08-20T03:32:35;20.60;99.90
17053;DHT22;8643;48.824;11.422;2023-08-20T03:35:04;20.60;99.90
17053;DHT22;8643;48.824;11.422;2023-08-20T03:37:33;20.60;99.90
17053;DHT22;8643;48.824;11.422;2023-08-20T03:40:03;20.50;99.90
17053;DHT22;8643;48.824;11.422;2023-08-20T03:42:33;20.50;99.90
17053;DHT22;8643;48.824;11.422;2023-08-20T03:45:03;20.40;99.90
17053;DHT22;8643;48.824;11.422;2023-08-20T03:47:32;20.40;99.90
17053;DHT22;8643;48.824;11.422;2023-08-20T03:50:01;20.40;99.90
17053;DHT22;8643;48.824;11.422;2023-08-20T03:52:30;20.30;99.90
17053;DHT22;8643;48.824;11.422;2023-08-20T03:54:59;20.30;99.90
17053;DHT22;8643;48.824;11.422;2023-08-20T03:57:27;20.20;99.90
17053;DHT22;8643;48.824;11.422;2023-08-20T03:59:57;20.10;99.90
17053;DHT22;8643;48.824;11.422;2023-08-20T04:07:26;20.00;99.90
17053;DHT22;8643;48.824;11.422;2023-08-20T04:14:56;19.90;99.90
17053;DHT22;8643;48.824;11.422;2023-08-20T04:17:25;19.80;99.90
17053;DHT22;8643;48.824;11.422;2023-08-20T04:22:22;19.80;99.90
17053;DHT22;8643;48.824;11.422;2023-08-20T04:24:52;19.70;99.90
17053;DHT22;8643;48.824;11.422;2023-08-20T04:27:20;19.70;99.90
17053;DHT22;8643;48.824;11.422;2023-08-20T04:29:49;19.70;99.90
17053;DHT22;8643;48.824;11.422;2023-08-20T04:32:19;19.60;99.90
17053;DHT22;8643;48.824;11.422;2023-08-20T04:34:49;19.70;99.90
17053;DHT22;8643;48.824;11.422;2023-08-20T04:37:20;19.60;99.90
17053;DHT22;8643;48.824;11.422;2023-08-20T04:39:49;19.60;99.90
17053;DHT22;8643;48.824;11.422;2023-08-20T04:42:17;19.60;99.90
17053;DHT22;8643;48.824;11.422;2023-08-20T04:44:45;19.50;99.90
17053;DHT22;8643;48.824;11.422;2023-08-20T04:47:14;19.50;99.90
17053;DHT22;8643;48.824;11.422;2023-08-20T04:49:45;19.50;99.90
17053;DHT22;8643;48.824;11.422;2023-08-20T04:52:13;19.50;99.90
17053;DHT22;8643;48.824;11.422;2023-08-20T04:54:42;19.50;99.90
17053;DHT22;8643;48.824;11.422;2023-08-20T04:57:10;19.50;99.90
17053;DHT22;8643;48.824;11.422;2023-08-20T04:59:39;19.60;99.90
17053;DHT22;8643;48.824;11.422;2023-08-20T05:02:28;19.60;99.90
17053;DHT22;8643;48.824;11.422;2023-08-20T05:05:03;19.60;99.90
17053;DHT22;8643;48.824;11.422;2023-08-20T05:07:31;19.60;99.90
17053;DHT22;8643;48.824;11.422;2023-08-20T05:10:00;19.70;99.90
17053;DHT22;8643;48.824;11.422;2023-08-20T05:12:29;19.70;99.90
17053;DHT22;8643;48.824;11.422;2023-08-20T05:14:58;19.70;99.90
17053;DHT22;8643;48.824;11.422;2023-08-20T05:17:26;19.80;99.90
17053;DHT22;8643;48.824;11.422;2023-08-20T05:19:56;19.70;99.90
17053;DHT22;8643;48.824;11.422;2023-08-20T05:22:27;19.90;99.90
17053;DHT22;8643;48.824;11.422;2023-08-20T05:29:56;20.00;99.90
17053;DHT22;8643;48.824;11.422;2023-08-20T05:32:25;20.10;99.90
17053;DHT22;8643;48.824;11.422;2023-08-20T05:34:53;20.10;99.90
17053;DHT22;8643;48.824;11.422;2023-08-20T05:37:22;20.20;99.90
17053;DHT22;8643;48.824;11.422;2023-08-20T05:39:51;20.30;99.90
17053;DHT22;8643;48.824;11.422;2023-08-20T05:42:20;20.50;99.90
17053;DHT22;8643;48.824;11.422;2023-08-20T05:44:57;20.60;99.90
17053;DHT22;8643;48.824;11.422;2023-08-20T05:47:27;20.80;99.90
17053;DHT22;8643;48.824;11.422;2023-08-20T05:52:25;21.10;99.90
17053;DHT22;8643;48.824;11.422;2023-08-20T05:54:55;21.40;99.90
17053;DHT22;8643;48.824;11.422;2023-08-20T05:57:23;22.90;99.90
17053;DHT22;8643;48.824;11.422;2023-08-20T05:59:52;21.80;99.90
17053;DHT22;8643;48.824;11.422;2023-08-20T06:02:20;22.00;99.90
17053;DHT22;8643;48.824;11.422;2023-08-20T06:04:48;22.20;99.90
17053;DHT22;8643;48.824;11.422;2023-08-20T06:07:17;22.40;99.90
17053;DHT22;8643;48.824;11.422;2023-08-20T06:09:46;22.70;99.90
17053;DHT22;8643;48.824;11.422;2023-08-20T06:12:18;23.10;99.90
17053;DHT22;8643;48.824;11.422;2023-08-20T06:17:15;23.80;99.90
17053;DHT22;8643;48.824;11.422;2023-08-20T06:19:44;24.10;99.90
17053;DHT22;8643;48.824;11.422;2023-08-20T06:22:13;24.40;99.90
17053;DHT22;8643;48.824;11.422;2023-08-20T06:27:10;24.90;99.90
17053;DHT22;8643;48.824;11.422;2023-08-20T06:29:41;25.20;99.90
17053;DHT22;8643;48.824;11.422;2023-08-20T06:32:09;25.40;99.90
17053;DHT22;8643;48.824;11.422;2023-08-20T06:34:37;25.50;99.90
17053;DHT22;8643;48.824;11.422;2023-08-20T06:37:06;25.80;99.90
17053;DHT22;8643;48.824;11.422;2023-08-20T06:39:34;25.90;99.90
17053;DHT22;8643;48.824;11.422;2023-08-20T06:42:03;26.20;99.90
17053;DHT22;8643;48.824;11.422;2023-08-20T06:44:31;26.40;99.90
17053;DHT22;8643;48.824;11.422;2023-08-20T06:47:01;26.50;99.90
17053;DHT22;8643;48.824;11.422;2023-08-20T06:49:29;26.70;99.90
17053;DHT22;8643;48.824;11.422;2023-08-20T06:56:55;27.30;99.90
17053;DHT22;8643;48.824;11.422;2023-08-20T06:59:24;27.40;99.90
17053;DHT22;8643;48.824;11.422;2023-08-20T07:04:23;27.90;99.90
17053;DHT22;8643;48.824;11.422;2023-08-20T07:06:51;28.00;99.90
17053;DHT22;8643;48.824;11.422;2023-08-20T07:09:20;28.00;99.90
17053;DHT22;8643;48.824;11.422;2023-08-20T07:14:17;28.10;99.90
17053;DHT22;8643;48.824;11.422;2023-08-20T07:16:45;28.30;99.90
17053;DHT22;8643;48.824;11.422;2023-08-20T07:19:14;28.30;99.90
17053;DHT22;8643;48.824;11.422;2023-08-20T07:21:43;28.30;99.90
17053;DHT22;8643;48.824;11.422;2023-08-20T07:24:12;28.40;99.90
17053;DHT22;8643;48.824;11.422;2023-08-20T07:26:40;28.40;99.90
17053;DHT22;8643;48.824;11.422;2023-08-20T07:29:09;28.20;99.90
17053;DHT22;8643;48.824;11.422;2023-08-20T07:31:37;28.20;99.90
17053;DHT22;8643;48.824;11.422;2023-08-20T07:34:06;28.60;99.90
17053;DHT22;8643;48.824;11.422;2023-08-20T07:36:39;28.80;99.90
17053;DHT22;8643;48.824;11.422;2023-08-20T07:39:09;28.80;99.90
17053;DHT22;8643;48.824;11.422;2023-08-20T07:41:37;28.90;99.90
17053;DHT22;8643;48.824;11.422;2023-08-20T07:44:05;28.90;99.90
17053;DHT22;8643;48.824;11.422;2023-08-20T07:46:34;29.00;99.90
17053;DHT22;8643;48.824;11.422;2023-08-20T07:49:03;28.90;99.90
17053;DHT22;8643;48.824;11.422;2023-08-20T07:51:31;29.20;99.90
17053;DHT22;8643;48.824;11.422;2023-08-20T07:54:00;29.40;99.90
17053;DHT22;8643;48.824;11.422;2023-08-20T07:56:30;29.30;99.90
17053;DHT22;8643;48.824;11.422;2023-08-20T07:58:58;29.40;99.90
17053;DHT22;8643;48.824;11.422;2023-08-20T08:01:26;29.50;99.90
17053;DHT22;8643;48.824;11.422;2023-08-20T08:03:55;29.70;99.90
17053;DHT22;8643;48.824;11.422;2023-08-20T08:06:23;29.80;99.90
17053;DHT22;8643;48.824;11.422;2023-08-20T08:08:52;30.10;99.90
17053;DHT22;8643;48.824;11.422;2023-08-20T08:11:20;30.40;99.90
17053;DHT22;8643;48.824;11.422;2023-08-20T08:13:50;30.50;99.90
17053;DHT22;8643;48.824;11.422;2023-08-20T08:16:18;30.80;99.90
17053;DHT22;8643;48.824;11.422;2023-08-20T08:18:49;31.00;99.90
17053;DHT22;8643;48.824;11.422;2023-08-20T08:21:17;31.10;99.30
17053;DHT22;8643;48.824;11.422;2023-08-20T08:23:46;31.30;97.50
17053;DHT22;8643;48.824;11.422;2023-08-20T08:26:14;31.50;97.70
17053;DHT22;8643;48.824;11.422;2023-08-20T08:28:42;31.60;97.10
17053;DHT22;8643;48.824;11.422;2023-08-20T08:31:12;31.60;94.90
17053;DHT22;8643;48.824;11.422;2023-08-20T08:33:40;31.70;95.60
17053;DHT22;8643;48.824;11.422;2023-08-20T08:36:09;31.70;96.80
17053;DHT22;8643;48.824;11.422;2023-08-20T08:38:38;31.80;94.30
17053;DHT22;8643;48.824;11.422;2023-08-20T08:41:11;31.90;95.60
17053;DHT22;8643;48.824;11.422;2023-08-20T08:43:40;31.90;97.00
17053;DHT22;8643;48.824;11.422;2023-08-20T08:46:14;32.10;94.40
17053;DHT22;8643;48.824;11.422;2023-08-20T08:48:43;32.20;96.50
17053;DHT22;8643;48.824;11.422;2023-08-20T08:51:14;32.40;96.10
17053;DHT22;8643;48.824;11.422;2023-08-20T08:53:43;32.50;91.00
17053;DHT22;8643;48.824;11.422;2023-08-20T08:56:12;32.60;93.40
17053;DHT22;8643;48.824;11.422;2023-08-20T08:58:40;32.60;92.80
17053;DHT22;8643;48.824;11.422;2023-08-20T09:01:08;32.70;89.30
17053;DHT22;8643;48.824;11.422;2023-08-20T09:03:39;32.70;88.80
17053;DHT22;8643;48.824;11.422;2023-08-20T09:06:09;32.40;86.70
17053;DHT22;8643;48.824;11.422;2023-08-20T09:08:37;32.60;87.00
17053;DHT22;8643;48.824;11.422;2023-08-20T09:11:06;32.70;92.60
17053;DHT22;8643;48.824;11.422;2023-08-20T09:13:36;32.90;86.70
17053;DHT22;8643;48.824;11.422;2023-08-20T09:16:06;32.90;88.50
17053;DHT22;8643;48.824;11.422;2023-08-20T09:18:39;33.30;85.50
17053;DHT22;8643;48.824;11.422;2023-08-20T09:21:10;33.40;87.00
17053;DHT22;8643;48.824;11.422;2023-08-20T09:23:39;33.40;90.20
17053;DHT22;8643;48.824;11.422;2023-08-20T09:26:08;33.30;85.90
17053;DHT22;8643;48.824;11.422;2023-08-20T09:28:41;33.30;90.20
17053;DHT22;8643;48.824;11.422;2023-08-20T09:31:11;33.30;86.00
17053;DHT22;8643;48.824;11.422;2023-08-20T09:33:50;33.30;86.70
17053;DHT22;8643;48.824;11.422;2023-08-20T09:36:29;33.80;90.70
17053;DHT22;8643;48.824;11.422;2023-08-20T09:38:59;33.80;86.80
17053;DHT22;8643;48.824;11.422;2023-08-20T09:41:27;33.90;91.30
17053;DHT22;8643;48.824;11.422;2023-08-20T09:43:58;34.00;92.80
17053;DHT22;8643;48.824;11.422;2023-08-20T09:46:27;34.20;80.80
17053;DHT22;8643;48.824;11.422;2023-08-20T09:49:01;34.30;82.60
17053;DHT22;8643;48.824;11.422;2023-08-20T09:51:33;34.10;78.00
17053;DHT22;8643;48.824;11.422;2023-08-20T09:54:13;34.30;80.80
17053;DHT22;8643;48.824;11.422;2023-08-20T09:56:53;34.60;80.50
17053;DHT22;8643;48.824;11.422;2023-08-20T09:59:27;34.10;79.30
17053;DHT22;8643;48.824;11.422;2023-08-20T10:01:56;33.90;77.00
17053;DHT22;8643;48.824;11.422;2023-08-20T10:04:26;33.80;76.20
17053;DHT22;8643;48.824;11.422;2023-08-20T10:06:58;33.80;75.90
17053;DHT22;8643;48.824;11.422;2023-08-20T10:09:27;34.10;79.30
17053;DHT22;8643;48.824;11.422;2023-08-20T10:11:56;34.30;79.30
17053;DHT22;8643;48.824;11.422;2023-08-20T10:14:24;34.50;77.50
17053;DHT22;8643;48.824;11.422;2023-08-20T10:16:53;34.60;76.90
17053;DHT22;8643;48.824;11.422;2023-08-20T10:19:22;34.80;79.80
17053;DHT22;8643;48.824;11.422;2023-08-20T10:21:54;34.70;76.50
17053;DHT22;8643;48.824;11.422;2023-08-20T10:24:24;34.90;78.20
17053;DHT22;8643;48.824;11.422;2023-08-20T10:27:08;35.00;76.00
17053;DHT22;8643;48.824;11.422;2023-08-20T10:29:38;35.20;70.70
17053;DHT22;8643;48.824;11.422;2023-08-20T10:32:10;35.00;76.40
17053;DHT22;8643;48.824;11.422;2023-08-20T10:34:42;35.30;71.20
17053;DHT22;8643;48.824;11.422;2023-08-20T10:37:26;35.40;76.70
17053;DHT22;8643;48.824;11.422;2023-08-20T10:39:56;35.20;72.80
17053;DHT22;8643;48.824;11.422;2023-08-20T10:42:28;34.90;75.30
17053;DHT22;8643;48.824;11.422;2023-08-20T10:44:58;35.00;74.80
17053;DHT22;8643;48.824;11.422;2023-08-20T10:47:41;35.00;74.80
17053;DHT22;8643;48.824;11.422;2023-08-20T10:50:12;35.60;74.00
17053;DHT22;8643;48.824;11.422;2023-08-20T10:52:49;35.90;78.50
17053;DHT22;8643;48.824;11.422;2023-08-20T10:55:22;35.90;71.50
17053;DHT22;8643;48.824;11.422;2023-08-20T10:57:55;36.10;71.40
17053;DHT22;8643;48.824;11.422;2023-08-20T11:02:55;35.30;67.00
17053;DHT22;8643;48.824;11.422;2023-08-20T11:05:24;35.10;71.30
17053;DHT22;8643;48.824;11.422;2023-08-20T11:07:54;35.10;71.80
17053;DHT22;8643;48.824;11.422;2023-08-20T11:10:22;36.90;75.90
17053;DHT22;8643;48.824;11.422;2023-08-20T11:12:52;35.20;70.60
17053;DHT22;8643;48.824;11.422;2023-08-20T11:15:20;36.60;71.30
17053;DHT22;8643;48.824;11.422;2023-08-20T11:17:49;35.30;69.80
17053;DHT22;8643;48.824;11.422;2023-08-20T11:20:18;35.20;72.40
17053;DHT22;8643;48.824;11.422;2023-08-20T11:22:48;35.20;72.60
17053;DHT22;8643;48.824;11.422;2023-08-20T11:27:46;34.80;68.70
17053;DHT22;8643;48.824;11.422;2023-08-20T11:30:15;34.70;69.30
17053;DHT22;8643;48.824;11.422;2023-08-20T11:32:44;34.50;68.60
17053;DHT22;8643;48.824;11.422;2023-08-20T11:35:13;34.60;67.70
17053;DHT22;8643;48.824;11.422;2023-08-20T11:37:42;34.60;70.20
17053;DHT22;8643;48.824;11.422;2023-08-20T11:40:11;34.70;71.00
17053;DHT22;8643;48.824;11.422;2023-08-20T11:42:41;34.30;69.40
17053;DHT22;8643;48.824;11.422;2023-08-20T11:45:10;34.20;70.10
17053;DHT22;8643;48.824;11.422;2023-08-20T11:47:39;34.30;68.80
17053;DHT22;8643;48.824;11.422;2023-08-20T11:50:09;34.60;68.10
17053;DHT22;8643;48.824;11.422;2023-08-20T11:52:38;35.00;65.20
17053;DHT22;8643;48.824;11.422;2023-08-20T11:55:08;35.30;63.70
17053;DHT22;8643;48.824;11.422;2023-08-20T11:57:37;35.40;66.90
17053;DHT22;8643;48.824;11.422;2023-08-20T12:00:07;35.40;67.10
17053;DHT22;8643;48.824;11.422;2023-08-20T12:02:43;34.90;67.70
17053;DHT22;8643;48.824;11.422;2023-08-20T12:05:11;34.80;69.70
17053;DHT22;8643;48.824;11.422;2023-08-20T12:07:41;34.90;68.50
17053;DHT22;8643;48.824;11.422;2023-08-20T12:10:22;35.20;73.40
17053;DHT22;8643;48.824;11.422;2023-08-20T12:12:51;35.20;65.40
17053;DHT22;8643;48.824;11.422;2023-08-20T12:15:22;35.10;62.10
17053;DHT22;8643;48.824;11.422;2023-08-20T12:17:58;35.10;64.30
17053;DHT22;8643;48.824;11.422;2023-08-20T12:20:28;34.90;63.70
17053;DHT22;8643;48.824;11.422;2023-08-20T12:22:59;34.80;63.90
17053;DHT22;8643;48.824;11.422;2023-08-20T12:25:30;34.80;65.80
17053;DHT22;8643;48.824;11.422;2023-08-20T12:28:00;34.50;64.90
17053;DHT22;8643;48.824;11.422;2023-08-20T12:30:32;34.50;69.50
17053;DHT22;8643;48.824;11.422;2023-08-20T12:33:05;34.50;62.00
17053;DHT22;8643;48.824;11.422;2023-08-20T12:35:34;34.20;66.90
17053;DHT22;8643;48.824;11.422;2023-08-20T12:38:03;34.90;68.40
17053;DHT22;8643;48.824;11.422;2023-08-20T12:40:32;34.90;72.80
17053;DHT22;8643;48.824;11.422;2023-08-20T12:43:00;34.80;61.50
17053;DHT22;8643;48.824;11.422;2023-08-20T12:45:29;35.00;66.40
17053;DHT22;8643;48.824;11.422;2023-08-20T12:47:58;34.80;64.80
17053;DHT22;8643;48.824;11.422;2023-08-20T12:50:28;34.70;65.10
17053;DHT22;8643;48.824;11.422;2023-08-20T12:52:57;34.60;64.30
17053;DHT22;8643;48.824;11.422;2023-08-20T12:55:25;34.30;64.10
17053;DHT22;8643;48.824;11.422;2023-08-20T12:57:55;34.10;63.30
17053;DHT22;8643;48.824;11.422;2023-08-20T13:00:25;34.10;66.60
17053;DHT22;8643;48.824;11.422;2023-08-20T13:02:55;34.30;68.10
17053;DHT22;8643;48.824;11.422;2023-08-20T13:05:26;34.30;68.30
17053;DHT22;8643;48.824;11.422;2023-08-20T13:07:56;34.00;66.90
17053;DHT22;8643;48.824;11.422;2023-08-20T13:10:25;33.60;65.10
17053;DHT22;8643;48.824;11.422;2023-08-20T13:13:00;33.60;64.40
17053;DHT22;8643;48.824;11.422;2023-08-20T13:15:30;33.60;67.80
17053;DHT22;8643;48.824;11.422;2023-08-20T13:18:02;33.80;65.60
17053;DHT22;8643;48.824;11.422;2023-08-20T13:20:33;33.60;65.80
17053;DHT22;8643;48.824;11.422;2023-08-20T13:23:01;33.50;64.90
17053;DHT22;8643;48.824;11.422;2023-08-20T13:25:30;33.80;64.50
17053;DHT22;8643;48.824;11.422;2023-08-20T13:27:58;33.90;63.30
17053;DHT22;8643;48.824;11.422;2023-08-20T13:30:27;33.90;62.80
17053;DHT22;8643;48.824;11.422;2023-08-20T13:32:55;33.80;61.90
17053;DHT22;8643;48.824;11.422;2023-08-20T13:35:24;34.10;64.10
17053;DHT22;8643;48.824;11.422;2023-08-20T13:37:54;34.30;64.60
17053;DHT22;8643;48.824;11.422;2023-08-20T13:40:22;34.30;68.50
17053;DHT22;8643;48.824;11.422;2023-08-20T13:42:50;34.60;68.70
17053;DHT22;8643;48.824;11.422;2023-08-20T13:47:47;35.00;66.10
17053;DHT22;8643;48.824;11.422;2023-08-20T13:50:16;35.00;63.60
17053;DHT22;8643;48.824;11.422;2023-08-20T13:52:44;34.70;64.70
17053;DHT22;8643;48.824;11.422;2023-08-20T13:55:14;34.90;72.70
17053;DHT22;8643;48.824;11.422;2023-08-20T13:57:43;34.90;67.90
17053;DHT22;8643;48.824;11.422;2023-08-20T14:00:12;34.90;66.30
17053;DHT22;8643;48.824;11.422;2023-08-20T14:02:41;34.60;64.80
17053;DHT22;8643;48.824;11.422;2023-08-20T14:05:10;34.60;61.40
17053;DHT22;8643;48.824;11.422;2023-08-20T14:10:09;34.40;62.30
17053;DHT22;8643;48.824;11.422;2023-08-20T14:12:39;34.60;58.60
17053;DHT22;8643;48.824;11.422;2023-08-20T14:17:38;34.20;63.30
17053;DHT22;8643;48.824;11.422;2023-08-20T14:20:07;34.20;68.20
17053;DHT22;8643;48.824;11.422;2023-08-20T14:22:38;34.50;64.60
17053;DHT22;8643;48.824;11.422;2023-08-20T14:25:07;34.60;62.80
17053;DHT22;8643;48.824;11.422;2023-08-20T14:27:36;34.60;61.80
17053;DHT22;8643;48.824;11.422;2023-08-20T14:30:08;34.70;62.10
17053;DHT22;8643;48.824;11.422;2023-08-20T14:32:37;34.80;61.90
17053;DHT22;8643;48.824;11.422;2023-08-20T14:35:07;34.60;60.90
17053;DHT22;8643;48.824;11.422;2023-08-20T14:37:37;34.50;60.00
17053;DHT22;8643;48.824;11.422;2023-08-20T14:40:06;34.80;59.70
17053;DHT22;8643;48.824;11.422;2023-08-20T14:42:36;35.00;59.50
17053;DHT22;8643;48.824;11.422;2023-08-20T14:45:07;35.20;60.60
17053;DHT22;8643;48.824;11.422;2023-08-20T14:47:36;35.20;62.60
17053;DHT22;8643;48.824;11.422;2023-08-20T14:50:06;34.70;60.30
17053;DHT22;8643;48.824;11.422;2023-08-20T14:52:35;34.30;62.00
17053;DHT22;8643;48.824;11.422;2023-08-20T14:55:05;33.90;61.20
17053;DHT22;8643;48.824;11.422;2023-08-20T14:57:36;34.00;64.20
17053;DHT22;8643;48.824;11.422;2023-08-20T15:00:19;34.10;62.90
17053;DHT22;8643;48.824;11.422;2023-08-20T15:02:50;34.20;65.70
17053;DHT22;8643;48.824;11.422;2023-08-20T15:05:18;34.10;60.70
17053;DHT22;8643;48.824;11.422;2023-08-20T15:07:47;34.00;65.30
17053;DHT22;8643;48.824;11.422;2023-08-20T15:10:16;34.10;62.90
17053;DHT22;8643;48.824;11.422;2023-08-20T15:12:45;33.90;64.70
17053;DHT22;8643;48.824;11.422;2023-08-20T15:15:14;33.90;65.70
17053;DHT22;8643;48.824;11.422;2023-08-20T15:17:43;33.90;64.20
17053;DHT22;8643;48.824;11.422;2023-08-20T15:20:12;34.00;66.40
17053;DHT22;8643;48.824;11.422;2023-08-20T15:22:40;33.80;60.30
17053;DHT22;8643;48.824;11.422;2023-08-20T15:25:10;33.50;60.70
17053;DHT22;8643;48.824;11.422;2023-08-20T15:27:39;33.70;59.20
17053;DHT22;8643;48.824;11.422;2023-08-20T15:30:08;33.80;60.80
17053;DHT22;8643;48.824;11.422;2023-08-20T15:32:37;33.90;62.90
17053;DHT22;8643;48.824;11.422;2023-08-20T15:35:08;34.00;62.30
17053;DHT22;8643;48.824;11.422;2023-08-20T15:37:36;33.80;58.60
17053;DHT22;8643;48.824;11.422;2023-08-20T15:40:06;33.90;58.00
17053;DHT22;8643;48.824;11.422;2023-08-20T15:42:39;33.90;65.10
17053;DHT22;8643;48.824;11.422;2023-08-20T15:45:09;33.70;59.30
17053;DHT22;8643;48.824;11.422;2023-08-20T15:47:37;33.80;65.00
17053;DHT22;8643;48.824;11.422;2023-08-20T15:50:08;33.50;61.40
17053;DHT22;8643;48.824;11.422;2023-08-20T15:55:06;33.50;63.40
17053;DHT22;8643;48.824;11.422;2023-08-20T15:57:37;33.50;65.20
17053;DHT22;8643;48.824;11.422;2023-08-20T16:00:06;33.60;67.90
17053;DHT22;8643;48.824;11.422;2023-08-20T16:02:41;33.50;66.40
17053;DHT22;8643;48.824;11.422;2023-08-20T16:05:12;33.30;63.80
17053;DHT22;8643;48.824;11.422;2023-08-20T16:07:41;33.30;67.50
17053;DHT22;8643;48.824;11.422;2023-08-20T16:10:10;33.30;67.60
17053;DHT22;8643;48.824;11.422;2023-08-20T16:15:09;33.00;70.50
17053;DHT22;8643;48.824;11.422;2023-08-20T16:17:38;32.90;67.60
17053;DHT22;8643;48.824;11.422;2023-08-20T16:20:08;32.80;66.80
17053;DHT22;8643;48.824;11.422;2023-08-20T16:22:38;32.70;68.20
17053;DHT22;8643;48.824;11.422;2023-08-20T16:25:07;32.50;72.70
17053;DHT22;8643;48.824;11.422;2023-08-20T16:27:36;31.90;72.40
17053;DHT22;8643;48.824;11.422;2023-08-20T16:30:07;32.30;74.50
17053;DHT22;8643;48.824;11.422;2023-08-20T16:35:07;32.00;76.50
17053;DHT22;8643;48.824;11.422;2023-08-20T16:37:37;32.00;72.40
17053;DHT22;8643;48.824;11.422;2023-08-20T16:40:07;31.90;75.50
17053;DHT22;8643;48.824;11.422;2023-08-20T16:42:46;31.70;77.70
17053;DHT22;8643;48.824;11.422;2023-08-20T16:45:15;31.70;77.10
17053;DHT22;8643;48.824;11.422;2023-08-20T16:47:44;31.50;77.60
17053;DHT22;8643;48.824;11.422;2023-08-20T16:50:13;31.40;77.20
17053;DHT22;8643;48.824;11.422;2023-08-20T16:52:44;31.20;76.70
17053;DHT22;8643;48.824;11.422;2023-08-20T16:55:12;31.20;78.20
17053;DHT22;8643;48.824;11.422;2023-08-20T16:57:40;31.00;80.60
17053;DHT22;8643;48.824;11.422;2023-08-20T17:00:10;31.00;80.40
17053;DHT22;8643;48.824;11.422;2023-08-20T17:02:39;30.90;81.30
17053;DHT22;8643;48.824;11.422;2023-08-20T17:05:08;30.90;82.80
17053;DHT22;8643;48.824;11.422;2023-08-20T17:07:37;30.80;83.80
17053;DHT22;8643;48.824;11.422;2023-08-20T17:10:08;30.90;82.60
17053;DHT22;8643;48.824;11.422;2023-08-20T17:12:37;30.90;82.00
17053;DHT22;8643;48.824;11.422;2023-08-20T17:15:07;30.80;79.30
17053;DHT22;8643;48.824;11.422;2023-08-20T17:20:07;30.50;80.20
17053;DHT22;8643;48.824;11.422;2023-08-20T17:22:36;30.20;86.00
17053;DHT22;8643;48.824;11.422;2023-08-20T17:25:07;29.90;88.60